createdAt,value
2023-01-19T00:00:36.009Z,-0.23
2023-01-19T00:03:03.548Z,-0.45
2023-01-19T00:05:37.726Z,-0.58
2023-01-19T00:08:04.346Z,-0.67
2023-01-19T00:10:39.721Z,-0.42
2023-01-19T00:13:06.415Z,-0.59
2023-01-19T00:15:33.216Z,-0.57
2023-01-19T00:18:00.051Z,-0.10
2023-01-19T00:20:27.876Z,0.22
2023-01-19T00:22:54.578Z,-0.74
2023-01-19T00:25:24.581Z,-0.12
2023-01-19T00:27:53.307Z,-0.61
2023-01-19T00:30:22.138Z,-0.62
2023-01-19T00:32:51.901Z,-0.43
2023-01-19T00:35:18.450Z,-0.42
2023-01-19T00:37:45.395Z,-0.42
2023-01-19T00:40:12.271Z,-0.75
2023-01-19T00:42:38.867Z,-0.99
2023-01-19T00:45:05.676Z,-1.01
2023-01-19T00:47:32.437Z,-0.91
2023-01-19T00:49:59.168Z,-1.03
2023-01-19T00:52:25.874Z,-0.89
2023-01-19T00:54:52.875Z,-1.15
2023-01-19T00:57:19.616Z,-0.81
2023-01-19T00:59:46.103Z,-0.94
2023-01-19T01:02:15.183Z,-1.04
2023-01-19T01:04:42.081Z,-1.18
2023-01-19T01:07:08.828Z,-1.31
2023-01-19T01:09:38.062Z,-1.19
2023-01-19T01:12:06.589Z,-1.24
2023-01-19T01:14:33.606Z,-1.20
2023-01-19T01:17:00.841Z,-1.33
2023-01-19T01:19:27.691Z,-1.39
2023-01-19T01:24:41.269Z,-1.46
2023-01-19T01:27:08.141Z,-1.47
2023-01-19T01:29:41.513Z,-1.54
2023-01-19T01:32:08.127Z,-1.64
2023-01-19T01:34:34.801Z,-1.41
2023-01-19T01:37:02.551Z,-1.29
2023-01-19T01:39:29.069Z,-1.01
2023-01-19T01:41:57.679Z,-0.88
2023-01-19T01:44:24.309Z,-0.98
2023-01-19T01:46:50.895Z,-0.62
2023-01-19T01:49:18.088Z,-0.56
2023-01-19T01:51:44.851Z,-0.67
2023-01-19T01:54:11.992Z,-0.80
2023-01-19T01:56:38.581Z,-0.83
2023-01-19T01:59:05.607Z,-0.95
2023-01-19T02:01:32.296Z,-0.88
2023-01-19T02:06:52.724Z,0.10
2023-01-19T02:09:28.034Z,-0.15
2023-01-19T02:11:55.367Z,-0.75
2023-01-19T02:14:22.016Z,-0.87
2023-01-19T02:16:48.604Z,-1.32
2023-01-19T02:19:15.294Z,-1.38
2023-01-19T02:21:42.057Z,-1.31
2023-01-19T02:24:08.678Z,-0.93
2023-01-19T02:26:35.599Z,-0.99
2023-01-19T02:29:02.253Z,-0.93
2023-01-19T02:31:29.006Z,-0.51
2023-01-19T02:33:55.757Z,-0.59
2023-01-19T02:36:23.088Z,-1.03
2023-01-19T02:38:49.881Z,-1.06
2023-01-19T02:41:16.676Z,-1.02
2023-01-19T02:43:43.221Z,-0.79
2023-01-19T02:46:09.835Z,-0.06
2023-01-19T02:48:36.610Z,0.55
2023-01-19T02:51:03.432Z,1.02
2023-01-19T02:53:30.147Z,0.07
2023-01-19T02:55:56.780Z,-0.28
2023-01-19T02:58:23.437Z,0.37
2023-01-19T03:00:50.359Z,0.47
2023-01-19T03:03:17.155Z,0.21
2023-01-19T03:05:45.740Z,0.21
2023-01-19T03:08:12.770Z,0.34
2023-01-19T03:10:39.555Z,0.82
2023-01-19T03:13:07.174Z,1.08
2023-01-19T03:15:33.849Z,1.11
2023-01-19T03:18:00.764Z,1.02
2023-01-19T03:20:27.563Z,1.73
2023-01-19T03:22:54.370Z,2.18
2023-01-19T03:25:21.339Z,2.67
2023-01-19T03:27:47.913Z,2.93
2023-01-19T03:30:14.498Z,3.15
2023-01-19T03:32:43.304Z,3.09
2023-01-19T03:35:10.084Z,3.08
2023-01-19T03:37:36.538Z,3.17
2023-01-19T03:40:03.301Z,3.05
2023-01-19T03:42:29.874Z,2.48
2023-01-19T03:44:57.196Z,1.53
2023-01-19T03:47:23.794Z,1.14
2023-01-19T03:49:50.642Z,0.94
2023-01-19T03:52:17.265Z,0.51
2023-01-19T03:54:44.133Z,0.41
2023-01-19T03:57:10.684Z,0.28
2023-01-19T03:59:39.497Z,-0.22
2023-01-19T04:02:06.362Z,-0.33
2023-01-19T04:04:34.346Z,-0.54
2023-01-19T04:07:00.987Z,-0.59
2023-01-19T04:09:27.904Z,-0.67
2023-01-19T04:11:54.468Z,-0.56
2023-01-19T04:14:21.241Z,-0.36
2023-01-19T04:16:48.044Z,-0.38
2023-01-19T04:19:14.614Z,-0.51
2023-01-19T04:21:41.133Z,-0.76
2023-01-19T04:24:07.804Z,-1.14
2023-01-19T04:26:34.602Z,-1.04
2023-01-19T04:29:01.187Z,-1.25
2023-01-19T04:31:30.221Z,-0.97
2023-01-19T04:36:48.286Z,-0.62
2023-01-19T04:39:15.537Z,-0.74
2023-01-19T04:41:42.213Z,-1.02
2023-01-19T04:44:09.081Z,-0.77
2023-01-19T04:46:38.247Z,-0.78
2023-01-19T04:49:05.111Z,-1.08
2023-01-19T04:51:33.852Z,-0.98
2023-01-19T04:54:00.703Z,-0.84
2023-01-19T04:56:28.317Z,-0.78
2023-01-19T04:58:56.475Z,-0.83
2023-01-19T05:01:23.429Z,-1.05
2023-01-19T05:03:50.139Z,-1.05
2023-01-19T05:06:17.016Z,-0.55
2023-01-19T05:11:37.419Z,-0.46
2023-01-19T05:16:58.667Z,-0.58
2023-01-19T05:19:33.358Z,-0.99
2023-01-19T05:22:03.062Z,-1.23
2023-01-19T05:24:38.832Z,-1.61
2023-01-19T05:27:12.624Z,-1.52
2023-01-19T05:29:39.653Z,-1.72
2023-01-19T05:32:07.162Z,-1.87
2023-01-19T05:34:33.745Z,-1.38
2023-01-19T05:37:01.302Z,-1.37
2023-01-19T05:39:30.295Z,-0.81
2023-01-19T05:42:05.838Z,-1.05
2023-01-19T05:44:32.477Z,-1.19
2023-01-19T05:46:59.875Z,-1.09
2023-01-19T05:49:27.251Z,-1.11
2023-01-19T05:51:53.807Z,-1.14
2023-01-19T05:54:21.427Z,-1.37
2023-01-19T05:56:48.809Z,-1.39
2023-01-19T05:59:15.997Z,-1.56
2023-01-19T06:01:43.377Z,-1.57
2023-01-19T06:04:10.767Z,-1.22
2023-01-19T06:06:38.298Z,-1.34
2023-01-19T06:09:04.754Z,-1.23
2023-01-19T06:11:33.513Z,-1.05
2023-01-19T06:14:03.356Z,-0.99
2023-01-19T06:16:30.238Z,-0.92
2023-01-19T06:18:56.819Z,-0.98
2023-01-19T06:21:24.050Z,-0.58
2023-01-19T06:23:50.895Z,0.04
2023-01-19T06:26:17.867Z,-0.31
2023-01-19T06:28:45.153Z,-0.02
2023-01-19T06:31:15.673Z,0.08
2023-01-19T06:33:42.581Z,0.35
2023-01-19T06:36:09.108Z,0.60
2023-01-19T06:41:23.517Z,0.85
2023-01-19T06:43:50.191Z,1.51
2023-01-19T06:46:19.308Z,1.72
2023-01-19T06:48:45.863Z,1.72
2023-01-19T06:51:13.293Z,1.81
2023-01-19T06:53:39.873Z,2.21
2023-01-19T06:56:07.224Z,1.49
2023-01-19T06:58:34.033Z,1.69
2023-01-19T07:01:03.424Z,1.35
2023-01-19T07:03:30.381Z,2.13
2023-01-19T07:05:59.553Z,2.39
2023-01-19T07:08:26.432Z,2.04
2023-01-19T07:11:22.321Z,2.13
2023-01-19T07:13:47.611Z,1.73
2023-01-19T07:16:16.971Z,2.25
2023-01-19T07:18:43.735Z,1.91
2023-01-19T07:21:10.528Z,1.46
2023-01-19T07:23:37.551Z,1.49
2023-01-19T07:26:04.256Z,1.71
2023-01-19T07:28:30.804Z,0.97
2023-01-19T07:30:57.556Z,1.03
2023-01-19T07:33:24.505Z,0.71
2023-01-19T07:35:51.006Z,1.19
2023-01-19T07:38:18.000Z,0.95
2023-01-19T07:40:45.410Z,1.05
2023-01-19T07:43:12.185Z,1.32
2023-01-19T07:45:38.901Z,1.89
2023-01-19T07:48:05.787Z,1.63
2023-01-19T07:50:33.706Z,1.34
2023-01-19T07:53:02.204Z,1.76
2023-01-19T07:55:29.038Z,1.59
2023-01-19T07:57:55.506Z,1.55
2023-01-19T08:00:22.692Z,1.76
2023-01-19T08:02:49.556Z,2.21
2023-01-19T08:05:17.836Z,1.46
2023-01-19T08:07:44.480Z,2.19
2023-01-19T08:10:11.555Z,2.67
2023-01-19T08:12:40.432Z,2.48
2023-01-19T08:15:06.970Z,1.01
2023-01-19T08:17:33.966Z,1.33
2023-01-19T08:20:00.679Z,0.59
2023-01-19T08:22:28.571Z,0.91
2023-01-19T08:24:55.381Z,1.08
2023-01-19T08:27:22.138Z,1.53
2023-01-19T08:29:49.207Z,1.49
2023-01-19T08:32:16.092Z,1.62
2023-01-19T08:34:42.870Z,2.22
2023-01-19T08:39:49.973Z,2.17
2023-01-19T08:42:16.867Z,2.63
2023-01-19T08:44:57.370Z,2.93
2023-01-19T08:47:26.953Z,3.35
2023-01-19T08:49:56.034Z,3.56
2023-01-19T08:52:22.592Z,3.04
2023-01-19T08:54:50.828Z,3.66
2023-01-19T08:57:19.753Z,3.64
2023-01-19T08:59:47.388Z,3.94
2023-01-19T09:02:16.471Z,4.06
2023-01-19T09:04:43.433Z,4.41
2023-01-19T09:07:10.164Z,4.69
2023-01-19T09:09:39.480Z,4.88
2023-01-19T09:12:10.244Z,4.94
2023-01-19T09:14:37.061Z,5.05
2023-01-19T09:17:03.673Z,4.30
2023-01-19T09:19:30.336Z,3.08
2023-01-19T09:21:58.055Z,3.54
2023-01-19T09:24:24.842Z,4.00
2023-01-19T09:26:52.042Z,3.24
2023-01-19T09:29:18.872Z,2.81
2023-01-19T09:31:45.512Z,2.08
2023-01-19T09:34:14.535Z,2.37
2023-01-19T09:36:41.108Z,2.79
2023-01-19T09:39:10.196Z,3.27
2023-01-19T09:41:39.268Z,4.23
2023-01-19T09:44:08.248Z,4.18
2023-01-19T09:46:35.257Z,4.67
2023-01-19T09:49:04.310Z,4.93
2023-01-19T09:51:31.532Z,4.34
2023-01-19T09:53:58.298Z,4.11
2023-01-19T09:56:24.937Z,4.43
2023-01-19T09:58:54.560Z,4.76
2023-01-19T10:01:21.521Z,4.70
2023-01-19T10:03:48.145Z,4.72
2023-01-19T10:06:14.993Z,4.97
2023-01-19T10:08:41.885Z,4.99
2023-01-19T10:11:08.796Z,5.37
2023-01-19T10:13:39.138Z,4.92
2023-01-19T10:16:06.633Z,5.20
2023-01-19T10:18:33.746Z,5.34
2023-01-19T10:21:00.648Z,5.47
2023-01-19T10:23:27.555Z,4.43
2023-01-19T10:25:54.353Z,4.47
2023-01-19T10:28:21.801Z,4.92
2023-01-19T10:30:48.685Z,5.27
2023-01-19T10:33:15.555Z,4.98
2023-01-19T10:35:42.704Z,5.37
2023-01-19T10:38:12.471Z,5.86
2023-01-19T10:40:39.160Z,5.89
2023-01-19T10:43:06.468Z,5.31
2023-01-19T10:45:36.702Z,5.92
2023-01-19T10:48:03.652Z,5.91
2023-01-19T10:50:30.748Z,5.79
2023-01-19T10:52:59.556Z,6.09
2023-01-19T10:55:27.273Z,5.41
2023-01-19T10:57:54.299Z,5.99
2023-01-19T11:00:21.033Z,6.00
2023-01-19T11:02:47.720Z,6.22
2023-01-19T11:05:14.438Z,5.65
2023-01-19T11:07:41.280Z,5.72
2023-01-19T11:10:08.395Z,5.87
2023-01-19T11:12:35.512Z,5.69
2023-01-19T11:15:02.563Z,6.08
2023-01-19T11:17:31.749Z,5.62
2023-01-19T11:19:58.463Z,5.65
2023-01-19T11:22:26.419Z,6.11
2023-01-19T11:24:55.595Z,5.48
2023-01-19T11:27:25.731Z,5.21
2023-01-19T11:29:52.382Z,5.86
2023-01-19T11:32:20.229Z,6.44
2023-01-19T11:34:48.898Z,6.59
2023-01-19T11:37:15.803Z,6.36
2023-01-19T11:39:42.476Z,6.52
2023-01-19T11:42:10.635Z,6.46
2023-01-19T11:44:41.263Z,6.92
2023-01-19T11:47:08.241Z,6.80
2023-01-19T11:49:35.806Z,6.74
2023-01-19T11:52:04.866Z,5.99
2023-01-19T11:54:32.264Z,5.54
2023-01-19T11:56:59.166Z,5.72
2023-01-19T11:59:25.753Z,6.04
2023-01-19T12:01:52.654Z,6.16
2023-01-19T12:04:20.877Z,6.65
2023-01-19T12:06:50.223Z,7.12
2023-01-19T12:12:06.262Z,6.88
2023-01-19T12:20:57.834Z,6.18
2023-01-19T12:35:36.129Z,5.45
2023-01-19T12:38:05.155Z,5.91
2023-01-19T12:40:32.159Z,5.81
2023-01-19T12:42:59.921Z,5.51
2023-01-19T12:45:26.778Z,5.91
2023-01-19T12:47:56.040Z,6.37
2023-01-19T12:50:24.125Z,5.85
2023-01-19T12:52:53.570Z,6.19
2023-01-19T12:55:21.358Z,6.21
2023-01-19T12:57:49.124Z,5.65
2023-01-19T13:00:20.305Z,5.41
2023-01-19T13:02:47.859Z,5.75
2023-01-19T13:05:15.205Z,5.36
2023-01-19T13:07:41.838Z,5.56
2023-01-19T13:10:08.643Z,5.60
2023-01-19T13:12:35.824Z,5.79
2023-01-19T13:15:02.694Z,6.02
2023-01-19T13:17:29.393Z,5.55
2023-01-19T13:19:56.241Z,5.38
2023-01-19T13:22:23.077Z,5.65
2023-01-19T13:24:49.867Z,6.12
2023-01-19T13:27:17.161Z,6.59
2023-01-19T13:29:44.154Z,6.70
2023-01-19T13:32:10.797Z,6.50
2023-01-19T13:34:37.620Z,6.41
2023-01-19T13:37:04.909Z,6.57
2023-01-19T13:39:31.797Z,6.89
2023-01-19T13:41:58.433Z,6.59
2023-01-19T13:44:25.166Z,7.10
2023-01-19T13:46:52.149Z,7.04
2023-01-19T13:49:19.665Z,6.75
2023-01-19T13:51:49.687Z,6.91
2023-01-19T13:54:20.992Z,7.29
2023-01-19T13:56:47.841Z,7.61
2023-01-19T13:59:16.660Z,6.38
2023-01-19T14:01:45.771Z,5.39
2023-01-19T14:04:12.913Z,5.85
2023-01-19T14:06:40.379Z,5.64
2023-01-19T14:09:09.443Z,6.54
2023-01-19T14:11:38.542Z,6.84
2023-01-19T14:14:07.005Z,6.57
2023-01-19T14:16:33.749Z,6.22
2023-01-19T14:19:00.747Z,6.42
2023-01-19T14:21:30.274Z,6.80
2023-01-19T14:23:58.210Z,6.13
2023-01-19T14:26:29.820Z,6.78
2023-01-19T14:28:56.736Z,6.31
2023-01-19T14:31:23.533Z,6.30
2023-01-19T14:33:50.126Z,6.33
2023-01-19T14:36:18.049Z,6.39
2023-01-19T14:38:44.765Z,6.97
2023-01-19T14:41:14.202Z,7.05
2023-01-19T14:43:41.232Z,6.81
2023-01-19T14:46:08.826Z,6.99
2023-01-19T14:48:36.335Z,7.17
2023-01-19T14:51:04.062Z,7.16
2023-01-19T14:53:31.435Z,7.08
2023-01-19T14:55:58.131Z,7.29
2023-01-19T14:58:27.058Z,6.28
2023-01-19T15:00:53.825Z,6.22
2023-01-19T15:03:23.353Z,6.80
2023-01-19T15:05:52.132Z,6.65
2023-01-19T15:08:21.211Z,6.91
2023-01-19T15:10:47.936Z,7.02
2023-01-19T15:13:14.458Z,6.65
2023-01-19T15:15:41.634Z,6.54
2023-01-19T15:18:08.974Z,6.87
2023-01-19T15:20:35.532Z,7.44
2023-01-19T15:23:02.209Z,7.87
2023-01-19T15:25:31.860Z,7.75
2023-01-19T15:27:58.828Z,7.79
2023-01-19T15:30:25.765Z,7.67
2023-01-19T15:32:52.660Z,7.42
2023-01-19T15:35:19.433Z,7.42
2023-01-19T15:37:48.681Z,7.27
2023-01-19T15:40:16.087Z,7.02
2023-01-19T15:42:44.792Z,6.80
2023-01-19T15:45:11.587Z,6.91
2023-01-19T15:47:38.151Z,6.39
2023-01-19T15:50:06.042Z,6.44
2023-01-19T15:52:33.681Z,6.64
2023-01-19T15:55:03.424Z,6.89
2023-01-19T15:57:30.320Z,6.95
2023-01-19T15:59:57.533Z,6.37
2023-01-19T16:02:25.031Z,6.60
2023-01-19T16:04:57.197Z,6.61
2023-01-19T16:07:23.985Z,6.48
2023-01-19T16:09:51.463Z,6.47
2023-01-19T16:12:18.145Z,6.60
2023-01-19T16:14:44.800Z,6.55
2023-01-19T16:17:12.212Z,6.42
2023-01-19T16:19:39.454Z,6.46
2023-01-19T16:22:13.781Z,6.31
2023-01-19T16:24:43.416Z,5.91
2023-01-19T16:27:11.404Z,5.96
2023-01-19T16:29:38.300Z,4.64
2023-01-19T16:32:06.895Z,4.74
2023-01-19T16:34:33.568Z,4.00
2023-01-19T16:37:00.526Z,4.31
2023-01-19T16:39:27.263Z,4.52
2023-01-19T16:41:54.236Z,4.55
2023-01-19T16:44:23.907Z,3.83
2023-01-19T16:46:51.057Z,4.43
2023-01-19T16:49:18.326Z,3.68
2023-01-19T16:51:45.015Z,3.86
2023-01-19T16:54:12.366Z,3.53
2023-01-19T16:56:39.649Z,3.03
2023-01-19T16:59:07.136Z,3.33
2023-01-19T17:01:34.560Z,3.49
2023-01-19T17:04:01.352Z,4.01
2023-01-19T17:06:31.027Z,4.00
2023-01-19T17:08:59.372Z,3.62
2023-01-19T17:11:32.224Z,3.51
2023-01-19T17:16:56.162Z,2.16
2023-01-19T17:19:24.165Z,1.64
2023-01-19T17:21:52.806Z,1.46
2023-01-19T17:24:21.990Z,1.00
2023-01-19T17:26:51.957Z,1.68
2023-01-19T17:29:24.557Z,1.63
2023-01-19T17:31:54.567Z,1.26
2023-01-19T17:37:19.825Z,1.61
2023-01-19T17:39:46.873Z,1.56
2023-01-19T17:42:16.051Z,0.64
2023-01-19T17:44:42.602Z,1.12
2023-01-19T17:47:09.501Z,1.74
2023-01-19T17:49:36.361Z,1.70
2023-01-19T17:52:02.979Z,1.16
2023-01-19T17:54:38.269Z,0.68
2023-01-19T17:57:04.934Z,1.38
2023-01-19T17:59:32.307Z,1.55
2023-01-19T18:01:58.909Z,1.67
2023-01-19T18:04:28.904Z,1.64
2023-01-19T18:06:57.165Z,1.35
2023-01-19T18:09:24.286Z,1.05
2023-01-19T18:11:51.129Z,0.89
2023-01-19T18:17:36.128Z,0.85
2023-01-19T18:20:03.033Z,0.66
2023-01-19T18:22:29.559Z,0.81
2023-01-19T18:24:56.564Z,0.62
2023-01-19T18:27:23.444Z,0.64
2023-01-19T18:29:50.379Z,0.59
2023-01-19T18:32:20.924Z,0.34
2023-01-19T18:34:48.124Z,0.55
2023-01-19T18:37:15.369Z,0.28
2023-01-19T18:39:41.969Z,-0.27
2023-01-19T18:42:10.808Z,-0.43
2023-01-19T18:44:37.672Z,-0.57
2023-01-19T18:47:05.201Z,-0.64
2023-01-19T18:49:32.603Z,-0.40
2023-01-19T18:52:00.121Z,0.06
2023-01-19T18:54:34.486Z,0.31
2023-01-19T18:57:03.749Z,0.33
2023-01-19T18:59:30.559Z,-0.02
2023-01-19T19:01:59.815Z,0.26
2023-01-19T19:04:28.954Z,-0.07
2023-01-19T19:06:57.358Z,-0.13
2023-01-19T19:09:25.765Z,-0.28
2023-01-19T19:11:54.631Z,-0.46
2023-01-19T19:14:21.605Z,-0.67
2023-01-19T19:16:48.150Z,-0.58
2023-01-19T19:19:14.830Z,-0.21
2023-01-19T19:21:41.456Z,-0.22
2023-01-19T19:24:08.137Z,-0.35
2023-01-19T19:26:35.047Z,-0.46
2023-01-19T19:29:02.031Z,-0.48
2023-01-19T19:31:30.970Z,-0.56
2023-01-19T19:33:58.435Z,-0.62
2023-01-19T19:36:40.401Z,-0.49
2023-01-19T19:39:07.141Z,-0.84
2023-01-19T19:41:36.800Z,-0.36
2023-01-19T19:44:04.388Z,0.34
2023-01-19T19:46:31.396Z,1.52
2023-01-19T19:48:57.956Z,1.65
2023-01-19T19:51:24.728Z,1.43
2023-01-19T19:53:52.012Z,2.25
2023-01-19T19:58:59.189Z,2.91
2023-01-19T20:01:28.504Z,3.00
2023-01-19T20:03:56.484Z,3.30
2023-01-19T20:06:24.112Z,2.28
2023-01-19T20:08:51.191Z,1.93
2023-01-19T20:11:18.550Z,1.87
2023-01-19T20:13:45.947Z,2.26
2023-01-19T20:16:16.924Z,2.89
2023-01-19T20:18:46.023Z,2.47
2023-01-19T20:21:12.877Z,0.89
2023-01-19T20:26:35.192Z,0.93
2023-01-19T20:29:03.075Z,1.31
2023-01-19T20:31:30.656Z,0.32
2023-01-19T20:33:57.416Z,-0.01
2023-01-19T20:36:25.477Z,0.05
2023-01-19T20:38:52.123Z,0.36
2023-01-19T20:41:19.487Z,0.95
2023-01-19T20:43:46.343Z,1.68
2023-01-19T20:46:13.357Z,1.24
2023-01-19T20:48:40.154Z,1.07
2023-01-19T20:51:07.014Z,1.10
2023-01-19T20:53:33.859Z,0.83
2023-01-19T20:56:04.694Z,0.95
2023-01-19T20:58:32.872Z,0.38
2023-01-19T21:01:00.362Z,0.48
2023-01-19T21:03:34.431Z,0.21
2023-01-19T21:06:01.329Z,0.75
2023-01-19T21:08:46.989Z,1.07
2023-01-19T21:11:14.915Z,0.89
2023-01-19T21:13:41.988Z,1.65
2023-01-19T21:16:09.310Z,0.36
2023-01-19T21:18:36.809Z,0.04
2023-01-19T21:21:03.423Z,-0.40
2023-01-19T21:23:30.287Z,-0.37
2023-01-19T21:25:56.929Z,-0.34
2023-01-19T21:28:25.873Z,0.11
2023-01-19T21:30:53.473Z,0.70
2023-01-19T21:33:20.164Z,-0.26
2023-01-19T21:35:46.888Z,0.09
2023-01-19T21:38:14.674Z,1.21
2023-01-19T21:40:42.670Z,1.56
2023-01-19T21:43:09.418Z,2.17
2023-01-19T21:45:36.551Z,2.51
2023-01-19T21:48:03.055Z,2.40
2023-01-19T21:50:30.617Z,2.25
2023-01-19T21:52:57.445Z,1.40
2023-01-19T21:55:25.509Z,0.92
2023-01-19T21:57:52.878Z,0.52
2023-01-19T22:00:19.392Z,1.59
2023-01-19T22:03:02.964Z,1.31
2023-01-19T22:05:31.616Z,0.75
2023-01-19T22:07:58.628Z,1.07
2023-01-19T22:10:26.490Z,1.32
2023-01-19T22:12:55.267Z,1.17
2023-01-19T22:15:22.005Z,0.56
2023-01-19T22:17:48.861Z,1.57
2023-01-19T22:20:16.065Z,1.67
2023-01-19T22:22:43.427Z,1.06
2023-01-19T22:25:10.305Z,1.21
2023-01-19T22:27:39.492Z,1.60
2023-01-19T22:30:06.317Z,1.34
2023-01-19T22:32:33.689Z,1.12
2023-01-19T22:35:00.301Z,0.77
2023-01-19T22:37:26.832Z,0.94
2023-01-19T22:39:55.070Z,0.84
2023-01-19T22:42:24.094Z,1.35
2023-01-19T22:44:51.312Z,1.43
2023-01-19T22:47:18.084Z,1.07
2023-01-19T22:49:52.060Z,0.92
2023-01-19T22:52:19.072Z,0.39
2023-01-19T22:54:45.898Z,0.96
2023-01-19T22:57:14.956Z,1.57
2023-01-19T22:59:41.473Z,1.84
2023-01-19T23:02:08.316Z,1.61
2023-01-19T23:04:35.367Z,2.03
2023-01-19T23:07:02.596Z,2.04
2023-01-19T23:09:31.790Z,2.45
2023-01-19T23:11:59.421Z,2.14
2023-01-19T23:14:25.927Z,2.50
2023-01-19T23:16:52.903Z,2.60
2023-01-19T23:19:19.615Z,2.18
2023-01-19T23:21:46.668Z,1.10
2023-01-19T23:24:13.725Z,0.90
2023-01-19T23:26:43.446Z,1.53
2023-01-19T23:29:14.835Z,0.19
2023-01-19T23:31:49.645Z,-0.11
2023-01-19T23:34:18.731Z,0.12
2023-01-19T23:36:45.466Z,0.23
2023-01-19T23:39:19.705Z,-0.08
2023-01-19T23:41:53.818Z,0.80
2023-01-19T23:44:20.683Z,0.58
2023-01-19T23:46:47.543Z,0.87
2023-01-19T23:49:16.309Z,0.40
2023-01-19T23:51:43.345Z,0.70
2023-01-19T23:54:10.031Z,0.62
2023-01-19T23:56:37.240Z,0.92
2023-01-19T23:59:04.640Z,1.16
